sensor_id;sensor_type;location;lat;lon;timestamp;temperature;humidity
23069;DHT22;11702;50.856;4.348;2022-07-05T00:00:05;16.40;99.90
23069;DHT22;11702;50.856;4.348;2022-07-05T00:02:31;16.30;99.90
23069;DHT22;11702;50.856;4.348;2022-07-05T00:04:56;16.30;99.90
23069;DHT22;11702;50.856;4.348;2022-07-05T00:07:22;16.20;99.90
23069;DHT22;11702;50.856;4.348;2022-07-05T00:09:53;16.20;99.90
23069;DHT22;11702;50.856;4.348;2022-07-05T00:12:21;16.20;99.90
23069;DHT22;11702;50.856;4.348;2022-07-05T00:14:48;16.30;99.90
23069;DHT22;11702;50.856;4.348;2022-07-05T00:17:14;16.20;99.90
23069;DHT22;11702;50.856;4.348;2022-07-05T00:19:40;16.30;99.90
23069;DHT22;11702;50.856;4.348;2022-07-05T00:22:06;16.20;99.90
23069;DHT22;11702;50.856;4.348;2022-07-05T00:24:33;16.20;99.90
23069;DHT22;11702;50.856;4.348;2022-07-05T00:26:58;16.20;99.90
23069;DHT22;11702;50.856;4.348;2022-07-05T00:29:24;16.30;99.90
23069;DHT22;11702;50.856;4.348;2022-07-05T00:31:50;16.30;99.90
23069;DHT22;11702;50.856;4.348;2022-07-05T00:34:16;16.30;99.90
23069;DHT22;11702;50.856;4.348;2022-07-05T00:36:42;16.20;99.90
23069;DHT22;11702;50.856;4.348;2022-07-05T00:39:08;16.10;99.90
23069;DHT22;11702;50.856;4.348;2022-07-05T00:41:35;16.00;99.90
23069;DHT22;11702;50.856;4.348;2022-07-05T00:44:05;16.00;99.90
23069;DHT22;11702;50.856;4.348;2022-07-05T00:46:32;16.00;99.90
23069;DHT22;11702;50.856;4.348;2022-07-05T00:48:58;16.00;99.90
23069;DHT22;11702;50.856;4.348;2022-07-05T00:51:24;16.10;99.90
23069;DHT22;11702;50.856;4.348;2022-07-05T00:53:52;16.20;99.90
23069;DHT22;11702;50.856;4.348;2022-07-05T00:56:22;16.20;99.90
23069;DHT22;11702;50.856;4.348;2022-07-05T00:58:48;16.20;99.90
23069;DHT22;11702;50.856;4.348;2022-07-05T01:01:14;16.20;99.90
23069;DHT22;11702;50.856;4.348;2022-07-05T01:03:41;16.10;99.90
23069;DHT22;11702;50.856;4.348;2022-07-05T01:06:10;16.10;99.90
23069;DHT22;11702;50.856;4.348;2022-07-05T01:08:38;16.10;99.90
23069;DHT22;11702;50.856;4.348;2022-07-05T01:11:04;16.10;99.90
23069;DHT22;11702;50.856;4.348;2022-07-05T01:13:30;16.20;99.90
23069;DHT22;11702;50.856;4.348;2022-07-05T01:15:56;16.10;99.90
23069;DHT22;11702;50.856;4.348;2022-07-05T01:18:22;16.10;99.90
23069;DHT22;11702;50.856;4.348;2022-07-05T01:20:49;16.10;99.90
23069;DHT22;11702;50.856;4.348;2022-07-05T01:23:18;15.90;99.90
23069;DHT22;11702;50.856;4.348;2022-07-05T01:25:48;15.90;99.90
23069;DHT22;11702;50.856;4.348;2022-07-05T01:28:14;16.00;99.90
23069;DHT22;11702;50.856;4.348;2022-07-05T01:30:42;16.00;99.90
23069;DHT22;11702;50.856;4.348;2022-07-05T01:33:08;15.90;99.90
23069;DHT22;11702;50.856;4.348;2022-07-05T01:35:35;16.00;99.90
23069;DHT22;11702;50.856;4.348;2022-07-05T01:38:01;15.90;99.90
23069;DHT22;11702;50.856;4.348;2022-07-05T01:40:26;15.90;99.90
23069;DHT22;11702;50.856;4.348;2022-07-05T01:42:52;15.80;99.90
23069;DHT22;11702;50.856;4.348;2022-07-05T01:45:18;15.90;99.90
23069;DHT22;11702;50.856;4.348;2022-07-05T01:48:25;15.70;99.90
23069;DHT22;11702;50.856;4.348;2022-07-05T01:51:00;15.60;99.90
23069;DHT22;11702;50.856;4.348;2022-07-05T01:53:30;15.50;99.90
23069;DHT22;11702;50.856;4.348;2022-07-05T01:56:03;15.50;99.90
23069;DHT22;11702;50.856;4.348;2022-07-05T01:58:30;15.50;99.90
23069;DHT22;11702;50.856;4.348;2022-07-05T02:00:58;15.40;99.90
23069;DHT22;11702;50.856;4.348;2022-07-05T02:03:25;15.30;99.90
23069;DHT22;11702;50.856;4.348;2022-07-05T02:05:51;15.20;99.90
23069;DHT22;11702;50.856;4.348;2022-07-05T02:08:18;15.10;99.90
23069;DHT22;11702;50.856;4.348;2022-07-05T02:10:44;15.10;99.90
23069;DHT22;11702;50.856;4.348;2022-07-05T02:13:10;15.10;99.90
23069;DHT22;11702;50.856;4.348;2022-07-05T02:15:39;15.10;99.90
23069;DHT22;11702;50.856;4.348;2022-07-05T02:18:06;15.00;99.90
23069;DHT22;11702;50.856;4.348;2022-07-05T02:20:33;15.00;99.90
23069;DHT22;11702;50.856;4.348;2022-07-05T02:22:59;14.90;99.90
23069;DHT22;11702;50.856;4.348;2022-07-05T02:25:25;14.80;99.90
23069;DHT22;11702;50.856;4.348;2022-07-05T02:27:52;14.80;99.90
23069;DHT22;11702;50.856;4.348;2022-07-05T02:30:18;14.80;99.90
23069;DHT22;11702;50.856;4.348;2022-07-05T02:32:44;14.80;99.90
23069;DHT22;11702;50.856;4.348;2022-07-05T02:35:10;14.80;99.90
23069;DHT22;11702;50.856;4.348;2022-07-05T02:37:37;14.70;99.90
23069;DHT22;11702;50.856;4.348;2022-07-05T02:40:06;14.70;99.90
23069;DHT22;11702;50.856;4.348;2022-07-05T02:42:32;14.70;99.90
23069;DHT22;11702;50.856;4.348;2022-07-05T02:44:58;14.70;99.90
23069;DHT22;11702;50.856;4.348;2022-07-05T02:47:23;14.70;99.90
23069;DHT22;11702;50.856;4.348;2022-07-05T02:49:49;14.70;99.90
23069;DHT22;11702;50.856;4.348;2022-07-05T02:52:15;14.70;99.90
23069;DHT22;11702;50.856;4.348;2022-07-05T02:54:40;14.70;99.90
23069;DHT22;11702;50.856;4.348;2022-07-05T02:57:06;14.70;99.90
23069;DHT22;11702;50.856;4.348;2022-07-05T02:59:32;14.60;99.90
23069;DHT22;11702;50.856;4.348;2022-07-05T03:01:57;14.60;99.90
23069;DHT22;11702;50.856;4.348;2022-07-05T03:04:23;14.60;99.90
23069;DHT22;11702;50.856;4.348;2022-07-05T03:06:49;14.60;99.90
23069;DHT22;11702;50.856;4.348;2022-07-05T03:09:14;14.50;99.90
23069;DHT22;11702;50.856;4.348;2022-07-05T03:11:40;14.50;99.90
23069;DHT22;11702;50.856;4.348;2022-07-05T03:14:05;14.40;99.90
23069;DHT22;11702;50.856;4.348;2022-07-05T03:16:31;14.40;99.90
23069;DHT22;11702;50.856;4.348;2022-07-05T03:18:57;14.40;99.90
23069;DHT22;11702;50.856;4.348;2022-07-05T03:21:22;14.40;99.90
23069;DHT22;11702;50.856;4.348;2022-07-05T03:23:48;14.30;99.90
23069;DHT22;11702;50.856;4.348;2022-07-05T03:26:13;14.40;99.90
23069;DHT22;11702;50.856;4.348;2022-07-05T03:28:39;14.40;99.90
23069;DHT22;11702;50.856;4.348;2022-07-05T03:31:05;14.30;99.90
23069;DHT22;11702;50.856;4.348;2022-07-05T03:33:30;14.30;99.90
23069;DHT22;11702;50.856;4.348;2022-07-05T03:35:56;14.20;99.90
23069;DHT22;11702;50.856;4.348;2022-07-05T03:38:22;14.20;99.90
23069;DHT22;11702;50.856;4.348;2022-07-05T03:40:48;14.20;99.90
23069;DHT22;11702;50.856;4.348;2022-07-05T03:43:13;14.20;99.90
23069;DHT22;11702;50.856;4.348;2022-07-05T03:45:39;14.20;99.90
23069;DHT22;11702;50.856;4.348;2022-07-05T03:48:05;14.20;99.90
23069;DHT22;11702;50.856;4.348;2022-07-05T03:50:30;14.20;99.90
23069;DHT22;11702;50.856;4.348;2022-07-05T03:52:56;14.20;99.90
23069;DHT22;11702;50.856;4.348;2022-07-05T03:55:22;14.20;99.90
23069;DHT22;11702;50.856;4.348;2022-07-05T03:57:47;14.20;99.90
23069;DHT22;11702;50.856;4.348;2022-07-05T04:00:14;14.20;99.90
23069;DHT22;11702;50.856;4.348;2022-07-05T04:02:40;14.20;99.90
23069;DHT22;11702;50.856;4.348;2022-07-05T04:05:06;14.30;99.90
23069;DHT22;11702;50.856;4.348;2022-07-05T04:07:32;14.30;99.90
23069;DHT22;11702;50.856;4.348;2022-07-05T04:09:59;14.30;99.90
23069;DHT22;11702;50.856;4.348;2022-07-05T04:12:25;14.30;99.90
23069;DHT22;11702;50.856;4.348;2022-07-05T04:14:51;14.40;99.90
23069;DHT22;11702;50.856;4.348;2022-07-05T04:17:17;14.50;99.90
23069;DHT22;11702;50.856;4.348;2022-07-05T04:19:42;14.70;99.90
23069;DHT22;11702;50.856;4.348;2022-07-05T04:22:08;15.20;99.90
23069;DHT22;11702;50.856;4.348;2022-07-05T04:24:33;15.80;99.90
23069;DHT22;11702;50.856;4.348;2022-07-05T04:27:19;16.00;99.90
23069;DHT22;11702;50.856;4.348;2022-07-05T04:29:44;16.20;99.90
23069;DHT22;11702;50.856;4.348;2022-07-05T04:32:10;15.90;99.90
23069;DHT22;11702;50.856;4.348;2022-07-05T04:34:36;15.80;99.90
23069;DHT22;11702;50.856;4.348;2022-07-05T04:37:01;16.20;99.90
23069;DHT22;11702;50.856;4.348;2022-07-05T04:39:27;16.90;99.90
23069;DHT22;11702;50.856;4.348;2022-07-05T04:41:53;17.80;99.90
23069;DHT22;11702;50.856;4.348;2022-07-05T04:44:18;18.70;99.90
23069;DHT22;11702;50.856;4.348;2022-07-05T04:46:44;19.50;99.90
23069;DHT22;11702;50.856;4.348;2022-07-05T04:49:09;20.00;99.90
23069;DHT22;11702;50.856;4.348;2022-07-05T04:51:35;20.60;99.90
23069;DHT22;11702;50.856;4.348;2022-07-05T04:54:01;20.90;99.90
23069;DHT22;11702;50.856;4.348;2022-07-05T04:56:26;21.50;99.90
23069;DHT22;11702;50.856;4.348;2022-07-05T04:58:52;22.20;99.90
23069;DHT22;11702;50.856;4.348;2022-07-05T05:01:17;22.30;99.90
23069;DHT22;11702;50.856;4.348;2022-07-05T05:03:43;22.80;99.90
23069;DHT22;11702;50.856;4.348;2022-07-05T05:06:09;23.00;99.90
23069;DHT22;11702;50.856;4.348;2022-07-05T05:08:34;23.30;99.90
23069;DHT22;11702;50.856;4.348;2022-07-05T05:11:00;23.50;99.10
23069;DHT22;11702;50.856;4.348;2022-07-05T05:13:26;23.70;98.30
23069;DHT22;11702;50.856;4.348;2022-07-05T05:15:51;23.50;98.30
23069;DHT22;11702;50.856;4.348;2022-07-05T05:18:17;23.70;98.30
23069;DHT22;11702;50.856;4.348;2022-07-05T05:20:44;23.70;98.10
23069;DHT22;11702;50.856;4.348;2022-07-05T05:23:09;23.90;97.60
23069;DHT22;11702;50.856;4.348;2022-07-05T05:25:35;24.00;97.40
23069;DHT22;11702;50.856;4.348;2022-07-05T05:28:02;23.70;97.50
23069;DHT22;11702;50.856;4.348;2022-07-05T05:30:27;23.50;97.70
23069;DHT22;11702;50.856;4.348;2022-07-05T05:32:53;23.70;98.20
23069;DHT22;11702;50.856;4.348;2022-07-05T05:35:18;24.20;97.00
23069;DHT22;11702;50.856;4.348;2022-07-05T05:37:53;24.50;96.40
23069;DHT22;11702;50.856;4.348;2022-07-05T05:40:20;24.70;95.90
23069;DHT22;11702;50.856;4.348;2022-07-05T05:42:46;24.70;95.90
23069;DHT22;11702;50.856;4.348;2022-07-05T05:45:13;24.50;96.10
23069;DHT22;11702;50.856;4.348;2022-07-05T05:47:53;24.50;96.30
23069;DHT22;11702;50.856;4.348;2022-07-05T05:50:24;24.70;95.80
23069;DHT22;11702;50.856;4.348;2022-07-05T05:52:49;24.50;96.10
23069;DHT22;11702;50.856;4.348;2022-07-05T05:55:15;24.60;96.10
23069;DHT22;11702;50.856;4.348;2022-07-05T05:57:41;24.70;95.80
23069;DHT22;11702;50.856;4.348;2022-07-05T06:00:08;24.90;95.40
23069;DHT22;11702;50.856;4.348;2022-07-05T06:02:34;24.60;95.50
23069;DHT22;11702;50.856;4.348;2022-07-05T06:05:00;24.30;95.80
23069;DHT22;11702;50.856;4.348;2022-07-05T06:07:25;24.10;96.60
23069;DHT22;11702;50.856;4.348;2022-07-05T06:09:51;24.20;96.20
23069;DHT22;11702;50.856;4.348;2022-07-05T06:12:17;24.20;96.50
23069;DHT22;11702;50.856;4.348;2022-07-05T06:14:43;24.20;96.30
23069;DHT22;11702;50.856;4.348;2022-07-05T06:17:08;24.40;96.00
23069;DHT22;11702;50.856;4.348;2022-07-05T06:19:34;24.20;96.30
23069;DHT22;11702;50.856;4.348;2022-07-05T06:21:59;24.30;96.40
23069;DHT22;11702;50.856;4.348;2022-07-05T06:24:25;24.50;96.00
23069;DHT22;11702;50.856;4.348;2022-07-05T06:26:51;23.90;96.60
23069;DHT22;11702;50.856;4.348;2022-07-05T06:29:16;23.30;97.50
23069;DHT22;11702;50.856;4.348;2022-07-05T06:31:42;23.40;97.80
23069;DHT22;11702;50.856;4.348;2022-07-05T06:34:07;23.40;97.90
23069;DHT22;11702;50.856;4.348;2022-07-05T06:36:33;23.60;97.70
23069;DHT22;11702;50.856;4.348;2022-07-05T06:38:59;23.60;97.70
23069;DHT22;11702;50.856;4.348;2022-07-05T06:41:24;23.50;97.80
23069;DHT22;11702;50.856;4.348;2022-07-05T06:43:50;22.80;98.80
23069;DHT22;11702;50.856;4.348;2022-07-05T06:46:15;22.60;99.70
23069;DHT22;11702;50.856;4.348;2022-07-05T06:48:41;22.50;99.90
23069;DHT22;11702;50.856;4.348;2022-07-05T06:51:07;22.80;99.90
23069;DHT22;11702;50.856;4.348;2022-07-05T06:53:32;23.00;99.60
23069;DHT22;11702;50.856;4.348;2022-07-05T06:55:58;23.10;99.00
23069;DHT22;11702;50.856;4.348;2022-07-05T06:58:24;23.10;99.00
23069;DHT22;11702;50.856;4.348;2022-07-05T07:00:49;23.20;99.00
23069;DHT22;11702;50.856;4.348;2022-07-05T07:03:15;23.10;99.60
23069;DHT22;11702;50.856;4.348;2022-07-05T07:05:41;22.80;99.40
23069;DHT22;11702;50.856;4.348;2022-07-05T07:08:07;22.10;99.90
23069;DHT22;11702;50.856;4.348;2022-07-05T07:10:51;21.70;99.90
23069;DHT22;11702;50.856;4.348;2022-07-05T07:13:17;22.00;99.90
23069;DHT22;11702;50.856;4.348;2022-07-05T07:15:42;21.90;99.90
23069;DHT22;11702;50.856;4.348;2022-07-05T07:18:08;22.10;99.90
23069;DHT22;11702;50.856;4.348;2022-07-05T07:20:34;22.00;99.90
23069;DHT22;11702;50.856;4.348;2022-07-05T07:23:00;22.10;99.90
23069;DHT22;11702;50.856;4.348;2022-07-05T07:25:26;22.10;99.90
23069;DHT22;11702;50.856;4.348;2022-07-05T07:27:53;22.30;99.90
23069;DHT22;11702;50.856;4.348;2022-07-05T07:30:22;22.40;99.90
23069;DHT22;11702;50.856;4.348;2022-07-05T07:32:49;22.40;99.90
23069;DHT22;11702;50.856;4.348;2022-07-05T07:35:14;22.20;99.90
23069;DHT22;11702;50.856;4.348;2022-07-05T07:37:40;22.30;99.90
23069;DHT22;11702;50.856;4.348;2022-07-05T07:40:06;22.50;99.90
23069;DHT22;11702;50.856;4.348;2022-07-05T07:42:33;22.60;99.90
23069;DHT22;11702;50.856;4.348;2022-07-05T07:44:59;22.90;99.90
23069;DHT22;11702;50.856;4.348;2022-07-05T07:47:32;22.90;99.90
23069;DHT22;11702;50.856;4.348;2022-07-05T07:49:58;23.30;99.90
23069;DHT22;11702;50.856;4.348;2022-07-05T07:52:23;23.90;99.40
23069;DHT22;11702;50.856;4.348;2022-07-05T07:54:49;23.90;98.80
23069;DHT22;11702;50.856;4.348;2022-07-05T07:57:14;23.80;99.30
23069;DHT22;11702;50.856;4.348;2022-07-05T07:59:40;24.00;98.90
23069;DHT22;11702;50.856;4.348;2022-07-05T08:02:06;24.20;98.70
23069;DHT22;11702;50.856;4.348;2022-07-05T08:04:32;24.20;98.60
23069;DHT22;11702;50.856;4.348;2022-07-05T08:06:58;24.30;98.20
23069;DHT22;11702;50.856;4.348;2022-07-05T08:09:24;24.50;98.30
23069;DHT22;11702;50.856;4.348;2022-07-05T08:11:50;24.50;98.10
23069;DHT22;11702;50.856;4.348;2022-07-05T08:14:17;24.80;97.20
23069;DHT22;11702;50.856;4.348;2022-07-05T08:16:44;24.70;97.30
23069;DHT22;11702;50.856;4.348;2022-07-05T08:19:11;24.90;97.30
23069;DHT22;11702;50.856;4.348;2022-07-05T08:21:55;25.20;97.20
23069;DHT22;11702;50.856;4.348;2022-07-05T08:24:20;25.60;96.10
23069;DHT22;11702;50.856;4.348;2022-07-05T08:26:46;25.60;95.30
23069;DHT22;11702;50.856;4.348;2022-07-05T08:29:13;25.00;96.10
23069;DHT22;11702;50.856;4.348;2022-07-05T08:31:42;24.70;96.70
23069;DHT22;11702;50.856;4.348;2022-07-05T08:34:08;24.60;96.90
23069;DHT22;11702;50.856;4.348;2022-07-05T08:36:34;24.30;97.00
23069;DHT22;11702;50.856;4.348;2022-07-05T08:39:00;24.40;97.30
23069;DHT22;11702;50.856;4.348;2022-07-05T08:41:25;24.00;97.70
23069;DHT22;11702;50.856;4.348;2022-07-05T08:43:52;23.80;98.30
23069;DHT22;11702;50.856;4.348;2022-07-05T08:46:18;23.80;98.50
23069;DHT22;11702;50.856;4.348;2022-07-05T08:48:47;23.90;98.90
23069;DHT22;11702;50.856;4.348;2022-07-05T08:51:16;24.00;98.00
23069;DHT22;11702;50.856;4.348;2022-07-05T08:53:43;24.20;97.90
23069;DHT22;11702;50.856;4.348;2022-07-05T08:56:10;24.20;97.80
23069;DHT22;11702;50.856;4.348;2022-07-05T08:58:36;24.30;97.30
23069;DHT22;11702;50.856;4.348;2022-07-05T09:01:03;24.40;97.50
23069;DHT22;11702;50.856;4.348;2022-07-05T09:03:32;24.50;97.50
23069;DHT22;11702;50.856;4.348;2022-07-05T09:06:01;24.50;97.20
23069;DHT22;11702;50.856;4.348;2022-07-05T09:08:30;24.50;97.00
23069;DHT22;11702;50.856;4.348;2022-07-05T09:11:02;24.60;96.90
23069;DHT22;11702;50.856;4.348;2022-07-05T09:13:35;24.50;96.60
23069;DHT22;11702;50.856;4.348;2022-07-05T09:16:02;24.30;97.40
23069;DHT22;11702;50.856;4.348;2022-07-05T09:18:48;24.30;97.10
23069;DHT22;11702;50.856;4.348;2022-07-05T09:21:24;24.40;97.40
23069;DHT22;11702;50.856;4.348;2022-07-05T09:23:55;24.50;96.90
23069;DHT22;11702;50.856;4.348;2022-07-05T09:26:39;24.30;96.90
23069;DHT22;11702;50.856;4.348;2022-07-05T09:29:07;24.20;97.40
23069;DHT22;11702;50.856;4.348;2022-07-05T09:31:41;23.90;98.00
23069;DHT22;11702;50.856;4.348;2022-07-05T09:34:14;23.80;97.80
23069;DHT22;11702;50.856;4.348;2022-07-05T09:39:12;23.50;98.80
23069;DHT22;11702;50.856;4.348;2022-07-05T09:41:38;23.30;98.30
23069;DHT22;11702;50.856;4.348;2022-07-05T09:44:04;23.30;98.70
23069;DHT22;11702;50.856;4.348;2022-07-05T09:46:31;23.40;97.90
23069;DHT22;11702;50.856;4.348;2022-07-05T09:48:57;23.40;97.80
23069;DHT22;11702;50.856;4.348;2022-07-05T09:51:23;23.40;98.00
23069;DHT22;11702;50.856;4.348;2022-07-05T09:53:54;23.40;98.50
23069;DHT22;11702;50.856;4.348;2022-07-05T09:56:21;23.70;98.40
23069;DHT22;11702;50.856;4.348;2022-07-05T09:58:47;24.00;97.60
23069;DHT22;11702;50.856;4.348;2022-07-05T10:01:26;24.20;96.40
23069;DHT22;11702;50.856;4.348;2022-07-05T10:03:56;24.20;96.80
23069;DHT22;11702;50.856;4.348;2022-07-05T10:06:24;24.60;96.50
23069;DHT22;11702;50.856;4.348;2022-07-05T10:08:52;24.80;96.20
23069;DHT22;11702;50.856;4.348;2022-07-05T10:11:21;24.90;95.80
23069;DHT22;11702;50.856;4.348;2022-07-05T10:13:49;25.10;95.50
23069;DHT22;11702;50.856;4.348;2022-07-05T10:16:19;25.30;94.90
23069;DHT22;11702;50.856;4.348;2022-07-05T10:18:50;25.30;92.20
23069;DHT22;11702;50.856;4.348;2022-07-05T10:21:17;25.20;92.10
23069;DHT22;11702;50.856;4.348;2022-07-05T10:23:47;25.10;92.00
23069;DHT22;11702;50.856;4.348;2022-07-05T10:26:15;25.10;92.30
23069;DHT22;11702;50.856;4.348;2022-07-05T10:28:45;25.20;93.30
23069;DHT22;11702;50.856;4.348;2022-07-05T10:31:12;24.90;93.00
23069;DHT22;11702;50.856;4.348;2022-07-05T10:33:38;24.90;92.90
23069;DHT22;11702;50.856;4.348;2022-07-05T10:36:05;24.40;94.40
23069;DHT22;11702;50.856;4.348;2022-07-05T10:38:35;24.60;94.50
23069;DHT22;11702;50.856;4.348;2022-07-05T10:41:05;24.50;94.00
23069;DHT22;11702;50.856;4.348;2022-07-05T10:43:32;24.60;93.60
23069;DHT22;11702;50.856;4.348;2022-07-05T10:45:58;24.70;93.50
23069;DHT22;11702;50.856;4.348;2022-07-05T10:48:25;24.80;93.10
23069;DHT22;11702;50.856;4.348;2022-07-05T10:53:29;25.00;92.70
23069;DHT22;11702;50.856;4.348;2022-07-05T11:06:45;26.80;90.80
23069;DHT22;11702;50.856;4.348;2022-07-05T11:09:15;26.90;90.40
23069;DHT22;11702;50.856;4.348;2022-07-05T11:17:10;26.10;90.10
23069;DHT22;11702;50.856;4.348;2022-07-05T11:22:33;26.70;86.00
23069;DHT22;11702;50.856;4.348;2022-07-05T11:25:00;26.90;85.10
23069;DHT22;11702;50.856;4.348;2022-07-05T11:27:26;26.40;86.00
23069;DHT22;11702;50.856;4.348;2022-07-05T11:29:54;26.00;86.70
23069;DHT22;11702;50.856;4.348;2022-07-05T11:32:22;25.50;89.10
23069;DHT22;11702;50.856;4.348;2022-07-05T11:34:49;24.80;90.30
23069;DHT22;11702;50.856;4.348;2022-07-05T11:37:23;24.80;90.80
23069;DHT22;11702;50.856;4.348;2022-07-05T11:42:37;24.90;90.80
23069;DHT22;11702;50.856;4.348;2022-07-05T11:45:08;24.80;90.90
23069;DHT22;11702;50.856;4.348;2022-07-05T11:47:35;24.70;91.10
23069;DHT22;11702;50.856;4.348;2022-07-05T11:50:01;24.70;91.20
23069;DHT22;11702;50.856;4.348;2022-07-05T11:52:29;23.90;92.40
23069;DHT22;11702;50.856;4.348;2022-07-05T11:54:56;23.50;93.20
23069;DHT22;11702;50.856;4.348;2022-07-05T11:57:22;22.80;95.00
23069;DHT22;11702;50.856;4.348;2022-07-05T11:59:48;22.70;95.10
23069;DHT22;11702;50.856;4.348;2022-07-05T12:02:15;22.70;94.90
23069;DHT22;11702;50.856;4.348;2022-07-05T12:04:41;22.90;95.30
23069;DHT22;11702;50.856;4.348;2022-07-05T12:07:12;23.60;94.50
23069;DHT22;11702;50.856;4.348;2022-07-05T12:09:51;24.10;93.70
23069;DHT22;11702;50.856;4.348;2022-07-05T12:12:35;24.70;92.80
23069;DHT22;11702;50.856;4.348;2022-07-05T12:15:16;24.70;92.80
23069;DHT22;11702;50.856;4.348;2022-07-05T12:17:44;24.80;92.60
23069;DHT22;11702;50.856;4.348;2022-07-05T12:20:12;24.90;91.40
23069;DHT22;11702;50.856;4.348;2022-07-05T12:22:40;24.60;92.00
23069;DHT22;11702;50.856;4.348;2022-07-05T12:25:08;24.80;91.90
23069;DHT22;11702;50.856;4.348;2022-07-05T12:27:38;24.80;92.20
23069;DHT22;11702;50.856;4.348;2022-07-05T12:30:06;24.40;92.60
23069;DHT22;11702;50.856;4.348;2022-07-05T12:32:32;24.10;93.20
23069;DHT22;11702;50.856;4.348;2022-07-05T12:34:58;23.80;93.50
23069;DHT22;11702;50.856;4.348;2022-07-05T12:37:27;23.70;94.20
23069;DHT22;11702;50.856;4.348;2022-07-05T12:40:07;23.30;94.70
23069;DHT22;11702;50.856;4.348;2022-07-05T12:42:39;23.50;94.80
23069;DHT22;11702;50.856;4.348;2022-07-05T12:47:48;22.70;95.70
23069;DHT22;11702;50.856;4.348;2022-07-05T12:50:14;22.60;96.70
23069;DHT22;11702;50.856;4.348;2022-07-05T12:53:02;22.80;96.50
23069;DHT22;11702;50.856;4.348;2022-07-05T12:55:50;22.60;96.30
23069;DHT22;11702;50.856;4.348;2022-07-05T12:58:54;22.60;96.80
23069;DHT22;11702;50.856;4.348;2022-07-05T13:01:31;22.60;96.40
23069;DHT22;11702;50.856;4.348;2022-07-05T13:06:54;22.90;96.10
23069;DHT22;11702;50.856;4.348;2022-07-05T13:12:19;22.70;96.00
23069;DHT22;11702;50.856;4.348;2022-07-05T13:14:53;22.80;95.80
23069;DHT22;11702;50.856;4.348;2022-07-05T13:17:21;22.80;95.90
23069;DHT22;11702;50.856;4.348;2022-07-05T13:19:49;22.80;95.80
23069;DHT22;11702;50.856;4.348;2022-07-05T13:22:15;22.70;95.90
23069;DHT22;11702;50.856;4.348;2022-07-05T13:24:41;22.80;95.90
23069;DHT22;11702;50.856;4.348;2022-07-05T13:27:09;23.10;95.70
23069;DHT22;11702;50.856;4.348;2022-07-05T13:29:36;23.00;95.40
23069;DHT22;11702;50.856;4.348;2022-07-05T13:32:02;22.60;95.50
23069;DHT22;11702;50.856;4.348;2022-07-05T13:34:28;22.10;96.20
23069;DHT22;11702;50.856;4.348;2022-07-05T13:36:55;22.10;96.40
23069;DHT22;11702;50.856;4.348;2022-07-05T13:39:22;22.00;96.70
23069;DHT22;11702;50.856;4.348;2022-07-05T13:41:49;22.10;96.60
23069;DHT22;11702;50.856;4.348;2022-07-05T13:44:15;22.20;96.80
23069;DHT22;11702;50.856;4.348;2022-07-05T13:46:40;22.30;96.50
23069;DHT22;11702;50.856;4.348;2022-07-05T13:49:06;22.20;96.70
23069;DHT22;11702;50.856;4.348;2022-07-05T13:51:31;22.40;96.70
23069;DHT22;11702;50.856;4.348;2022-07-05T13:53:57;22.40;96.30
23069;DHT22;11702;50.856;4.348;2022-07-05T13:56:23;22.20;96.60
23069;DHT22;11702;50.856;4.348;2022-07-05T13:58:49;21.90;96.90
23069;DHT22;11702;50.856;4.348;2022-07-05T14:01:15;21.80;97.20
23069;DHT22;11702;50.856;4.348;2022-07-05T14:03:40;21.80;96.90
23069;DHT22;11702;50.856;4.348;2022-07-05T14:06:06;21.80;97.10
23069;DHT22;11702;50.856;4.348;2022-07-05T14:08:32;21.80;97.00
23069;DHT22;11702;50.856;4.348;2022-07-05T14:10:58;21.90;97.10
23069;DHT22;11702;50.856;4.348;2022-07-05T14:13:25;21.80;96.80
23069;DHT22;11702;50.856;4.348;2022-07-05T14:15:51;21.70;96.90
23069;DHT22;11702;50.856;4.348;2022-07-05T14:18:19;21.60;97.00
23069;DHT22;11702;50.856;4.348;2022-07-05T14:20:46;21.80;96.50
23069;DHT22;11702;50.856;4.348;2022-07-05T14:23:13;21.80;96.60
23069;DHT22;11702;50.856;4.348;2022-07-05T14:25:42;21.80;96.70
23069;DHT22;11702;50.856;4.348;2022-07-05T14:28:08;21.90;96.70
23069;DHT22;11702;50.856;4.348;2022-07-05T14:30:39;21.60;96.90
23069;DHT22;11702;50.856;4.348;2022-07-05T14:33:05;21.30;97.10
23069;DHT22;11702;50.856;4.348;2022-07-05T14:35:32;21.20;97.80
23069;DHT22;11702;50.856;4.348;2022-07-05T14:37:58;21.30;97.60
23069;DHT22;11702;50.856;4.348;2022-07-05T14:40:25;21.50;97.40
23069;DHT22;11702;50.856;4.348;2022-07-05T14:42:52;21.60;97.40
23069;DHT22;11702;50.856;4.348;2022-07-05T14:45:18;21.60;97.30
23069;DHT22;11702;50.856;4.348;2022-07-05T14:47:44;21.80;97.10
23069;DHT22;11702;50.856;4.348;2022-07-05T14:50:10;21.80;97.10
23069;DHT22;11702;50.856;4.348;2022-07-05T14:52:36;21.60;97.20
23069;DHT22;11702;50.856;4.348;2022-07-05T14:55:02;21.50;97.50
23069;DHT22;11702;50.856;4.348;2022-07-05T14:57:28;21.60;97.40
23069;DHT22;11702;50.856;4.348;2022-07-05T14:59:53;21.60;97.60
23069;DHT22;11702;50.856;4.348;2022-07-05T15:02:19;21.40;97.50
23069;DHT22;11702;50.856;4.348;2022-07-05T15:04:45;21.30;97.80
23069;DHT22;11702;50.856;4.348;2022-07-05T15:07:10;21.30;97.70
23069;DHT22;11702;50.856;4.348;2022-07-05T15:09:36;21.20;97.30
23069;DHT22;11702;50.856;4.348;2022-07-05T15:12:02;21.10;97.60
23069;DHT22;11702;50.856;4.348;2022-07-05T15:14:27;21.10;97.80
23069;DHT22;11702;50.856;4.348;2022-07-05T15:16:57;21.10;97.60
23069;DHT22;11702;50.856;4.348;2022-07-05T15:19:23;21.00;97.60
23069;DHT22;11702;50.856;4.348;2022-07-05T15:21:48;21.00;97.70
23069;DHT22;11702;50.856;4.348;2022-07-05T15:24:15;21.00;97.40
23069;DHT22;11702;50.856;4.348;2022-07-05T15:26:41;20.90;97.30
23069;DHT22;11702;50.856;4.348;2022-07-05T15:29:09;21.00;97.80
23069;DHT22;11702;50.856;4.348;2022-07-05T15:31:36;21.00;97.20
23069;DHT22;11702;50.856;4.348;2022-07-05T15:34:03;21.00;96.80
23069;DHT22;11702;50.856;4.348;2022-07-05T15:36:29;20.80;96.80
23069;DHT22;11702;50.856;4.348;2022-07-05T15:38:59;20.70;96.90
23069;DHT22;11702;50.856;4.348;2022-07-05T15:41:27;20.80;97.10
23069;DHT22;11702;50.856;4.348;2022-07-05T15:43:53;20.80;96.70
23069;DHT22;11702;50.856;4.348;2022-07-05T15:46:19;20.70;96.70
23069;DHT22;11702;50.856;4.348;2022-07-05T15:48:44;20.60;96.90
23069;DHT22;11702;50.856;4.348;2022-07-05T15:51:10;20.40;96.90
23069;DHT22;11702;50.856;4.348;2022-07-05T15:53:38;20.40;97.00
23069;DHT22;11702;50.856;4.348;2022-07-05T15:56:04;20.30;97.40
23069;DHT22;11702;50.856;4.348;2022-07-05T15:58:31;20.40;96.80
23069;DHT22;11702;50.856;4.348;2022-07-05T16:00:57;20.40;96.80
23069;DHT22;11702;50.856;4.348;2022-07-05T16:03:27;20.50;96.90
23069;DHT22;11702;50.856;4.348;2022-07-05T16:05:55;20.70;96.40